Time;durP1;ratioP1;P1;durP2;ratioP2;P2;SDS_P1;SDS_P2;PMS_P1;PMS_P2;Temp;Humidity;BMP_temperature;BMP_pressure;BME280_temperature;BME280_humidity;BME280_pressure;Samples;Min_cycle;Max_cycle;Signal;HPM_P1;HPM_P2
2022/07/09 00:01:14;;;;;;;5.68;2.48;;;;;;;16.05;94.60;100903.89;713739;1174;115418;-73
2022/07/09 00:16:16;;;;;;;5.30;2.58;;;;;;;16.15;95.18;100895.83;714144;1173;114565;-73
2022/07/09 00:31:18;;;;;;;5.50;2.80;;;;;;;16.26;96.01;100903.51;713755;1174;114882;-73
2022/07/09 00:46:20;;;;;;;14.40;6.97;;;;;;;16.35;96.23;100908.84;713837;1174;115401;-73
2022/07/09 01:01:23;;;;;;;8.53;4.08;;;;;;;16.30;97.44;100888.15;713816;1173;114799;-72
2022/07/09 01:16:33;;;;;;;7.50;4.18;;;;;;;16.41;98.09;100879.09;713881;1174;114919;-73
2022/07/09 01:31:36;;;;;;;8.53;4.33;;;;;;;16.55;98.88;100856.45;713963;1174;115496;-74
2022/07/09 01:46:38;;;;;;;3.63;2.95;;;;;;;16.51;100.00;100844.53;714001;1174;114734;-73
2022/07/09 02:01:40;;;;;;;6.68;3.00;;;;;;;16.56;100.00;100836.93;713788;1174;115781;-73
2022/07/09 02:16:43;;;;;;;3.78;2.80;;;;;;;16.56;100.00;100818.39;713850;1174;115885;-73
2022/07/09 02:31:46;;;;;;;5.77;3.30;;;;;;;16.61;100.00;100805.50;713917;1174;115552;-73
2022/07/09 02:46:48;;;;;;;6.68;2.85;;;;;;;16.49;100.00;100799.67;714081;1174;115989;-74
2022/07/09 03:01:51;;;;;;;6.03;3.20;;;;;;;16.37;100.00;100785.09;714256;1174;114790;-74
2022/07/09 03:16:53;;;;;;;5.50;2.70;;;;;;;16.42;100.00;100783.61;713795;1174;115778;-75
2022/07/09 03:31:55;;;;;;;6.73;3.38;;;;;;;16.45;100.00;100780.63;713872;1174;114855;-75
2022/07/09 03:46:57;;;;;;;6.90;3.10;;;;;;;16.60;100.00;100782.64;713954;1174;115793;-73
2022/07/09 04:02:00;;;;;;;5.05;2.55;;;;;;;16.72;100.00;100772.56;714034;1174;116255;-73
2022/07/09 04:17:02;;;;;;;7.00;2.70;;;;;;;16.82;100.00;100761.83;714100;1173;115838;-73
2022/07/09 04:32:05;;;;;;;4.37;2.50;;;;;;;16.94;100.00;100752.58;714300;1174;115165;-75
2022/07/09 04:47:07;;;;;;;6.18;3.93;;;;;;;17.11;100.00;100738.33;714373;1174;115373;-73
2022/07/09 05:02:09;;;;;;;7.90;5.73;;;;;;;17.18;100.00;100729.71;713901;1174;114506;-74
2022/07/09 05:17:12;;;;;;;11.33;6.38;;;;;;;17.37;100.00;100724.05;713742;1174;115215;-75
2022/07/09 05:32:14;;;;;;;11.85;7.78;;;;;;;17.58;100.00;100720.03;714097;1173;114925;-75
2022/07/09 05:47:17;;;;;;;10.78;7.58;;;;;;;17.76;100.00;100710.02;713996;1174;114494;-75
2022/07/09 06:02:19;;;;;;;10.68;8.38;;;;;;;18.20;100.00;100703.34;714273;1174;115176;-75
2022/07/09 06:17:22;;;;;;;11.10;8.53;;;;;;;18.60;100.00;100697.93;714714;1173;115814;-77
2022/07/09 06:32:24;;;;;;;14.13;8.13;;;;;;;19.31;100.00;100678.19;714566;1174;115778;-77
2022/07/09 06:47:26;;;;;;;7.00;6.10;;;;;;;19.71;100.00;100682.20;714214;1174;115357;-74
2022/07/09 07:02:29;;;;;;;7.35;5.85;;;;;;;19.78;99.27;100677.80;714557;1174;114684;-75
2022/07/09 07:17:32;;;;;;;9.75;4.85;;;;;;;19.97;96.28;100678.25;714329;1174;115356;-75
2022/07/09 07:32:35;;;;;;;6.85;5.23;;;;;;;19.66;95.50;100671.29;714089;1174;114413;-75
2022/07/09 07:47:38;;;;;;;5.63;4.20;;;;;;;19.69;96.20;100676.26;714356;1174;114875;-78
2022/07/09 08:02:41;;;;;;;6.75;4.10;;;;;;;21.07;93.99;100636.16;714721;1174;114694;-76
2022/07/09 08:17:44;;;;;;;11.28;4.10;;;;;;;21.36;87.80;100646.80;714556;1174;115692;-75
2022/07/09 08:32:48;;;;;;;5.10;3.20;;;;;;;21.93;83.91;100640.28;714642;1174;116294;-76
2022/07/09 08:47:52;;;;;;;5.15;3.28;;;;;;;21.94;80.85;100639.23;716134;1174;115060;-75
2022/07/09 09:02:54;;;;;;;4.20;2.60;;;;;;;22.82;80.61;100633.96;715135;1174;114435;-76
2022/07/09 09:17:57;;;;;;;7.75;3.05;;;;;;;22.37;76.79;100622.08;714472;1174;114756;-77
2022/07/09 09:33:04;;;;;;;4.45;2.38;;;;;;;22.65;73.06;100626.38;715343;1174;115575;-79
2022/07/09 09:48:06;;;;;;;5.73;3.25;;;;;;;22.94;74.95;100610.92;714844;1174;115904;-78
2022/07/09 10:03:11;;;;;;;9.00;4.50;;;;;;;23.49;72.95;100604.38;714492;1174;114385;-79
2022/07/09 10:18:18;;;;;;;4.63;2.37;;;;;;;22.31;70.85;100609.49;714809;1174;118010;-77
2022/07/09 10:33:36;;;;;;;4.83;2.28;;;;;;;22.28;71.64;100596.55;714896;1174;115503;-80
2022/07/09 10:48:38;;;;;;;3.18;2.20;;;;;;;22.22;72.79;100600.03;716867;1174;114728;-80
2022/07/09 11:03:41;;;;;;;6.13;2.70;;;;;;;22.30;71.05;100586.47;715174;1174;114320;-78
2022/07/09 11:18:43;;;;;;;8.47;4.57;;;;;;;22.00;70.32;100575.34;716653;1174;114376;-74
2022/07/09 11:49:15;;;;;;;8.60;3.83;;;;;;;22.55;69.27;100572.52;714691;1173;115943;-72
2022/07/09 12:04:21;;;;;;;28.70;9.43;;;;;;;23.24;67.25;100554.23;717001;1174;115601;-74
2022/07/09 12:19:25;;;;;;;7.10;3.55;;;;;;;25.19;64.26;100548.14;714800;1174;116052;-74
2022/07/09 12:34:27;;;;;;;10.98;4.90;;;;;;;25.52;60.74;100528.11;714811;1174;114352;-75
2022/07/09 12:49:30;;;;;;;10.80;5.70;;;;;;;25.71;58.93;100516.25;714760;1174;114511;-75
2022/07/09 13:04:41;;;;;;;4.65;2.33;;;;;;;25.64;57.70;100502.09;714834;1174;114457;-75
2022/07/09 13:19:43;;;;;;;5.53;2.50;;;;;;;24.14;58.87;100491.69;714536;1174;115294;-75
2022/07/09 13:34:45;;;;;;;7.83;2.30;;;;;;;21.01;69.21;100551.64;714844;1174;115666;-75
2022/07/09 13:49:48;;;;;;;2.48;1.38;;;;;;;19.54;79.87;100550.39;714648;1174;114081;-75
2022/07/09 14:04:52;;;;;;;10.63;4.33;;;;;;;19.85;85.21;100522.68;714378;1174;115932;-75
2022/07/09 14:19:55;;;;;;;5.28;2.88;;;;;;;20.40;86.67;100510.45;714392;1174;114841;-75
2022/07/09 14:34:58;;;;;;;2.50;1.40;;;;;;;21.88;86.06;100492.34;715299;1173;114753;-75
2022/07/09 14:50:06;;;;;;;4.15;1.40;;;;;;;23.08;81.93;100468.06;714634;1174;115089;-75
2022/07/09 15:05:09;;;;;;;1.20;1.05;;;;;;;23.29;78.49;100460.77;714962;1174;115072;-75
2022/07/09 15:20:11;;;;;;;2.30;1.50;;;;;;;23.57;73.63;100446.16;714223;1174;114163;-75
2022/07/09 15:35:14;;;;;;;2.53;1.53;;;;;;;23.31;71.84;100420.43;714293;1174;114046;-75
2022/07/09 15:50:16;;;;;;;4.23;2.70;;;;;;;22.71;69.98;100395.63;714496;1174;115043;-74
2022/07/09 16:05:19;;;;;;;6.55;4.25;;;;;;;23.25;71.80;100384.63;716390;1174;114165;-75
2022/07/09 16:20:22;;;;;;;6.10;2.37;;;;;;;23.05;71.43;100376.72;715308;1174;114557;-74
2022/07/09 16:35:24;;;;;;;8.85;3.63;;;;;;;22.85;69.87;100395.56;714533;1174;115081;-74
2022/07/09 16:50:27;;;;;;;3.53;2.40;;;;;;;22.74;69.27;100368.45;714332;1174;114075;-75
2022/07/09 17:05:29;;;;;;;5.47;3.37;;;;;;;22.19;71.14;100370.70;714379;1167;114321;-76
2022/07/09 17:20:32;;;;;;;5.25;3.38;;;;;;;21.57;73.91;100369.14;714505;1174;115909;-74
2022/07/09 17:35:34;;;;;;;2.53;1.95;;;;;;;21.07;75.76;100358.00;714567;1174;118800;-75
2022/07/09 17:50:36;;;;;;;4.80;2.78;;;;;;;21.20;75.34;100357.20;714501;1174;114368;-75
2022/07/09 18:05:39;;;;;;;20.53;14.37;;;;;;;20.77;75.96;100355.67;714450;1174;115815;-75
2022/07/09 18:20:43;;;;;;;1.90;1.70;;;;;;;21.16;74.26;100355.97;714450;1174;115998;-78
2022/07/09 18:35:46;;;;;;;21.17;10.23;;;;;;;21.02;74.16;100357.78;714748;1174;115336;-76
2022/07/09 18:50:48;;;;;;;9.03;3.53;;;;;;;20.28;76.13;100354.84;714857;1174;115065;-76
2022/07/09 19:05:51;;;;;;;29.68;13.85;;;;;;;19.63;80.55;100365.67;714469;1174;114452;-75
2022/07/09 19:20:54;;;;;;;13.20;5.88;;;;;;;19.30;83.00;100366.21;714771;1174;114528;-73
2022/07/09 19:35:57;;;;;;;4.47;2.93;;;;;;;18.97;84.67;100372.02;714965;1174;115941;-75
2022/07/09 19:51:02;;;;;;;6.40;3.38;;;;;;;18.55;86.40;100361.09;714893;1174;114896;-74
2022/07/09 20:06:07;;;;;;;7.63;3.78;;;;;;;18.23;88.52;100357.83;714768;1174;114192;-73
2022/07/09 20:21:10;;;;;;;6.60;3.93;;;;;;;17.90;88.16;100358.16;714513;1173;115700;-73
2022/07/09 20:36:21;;;;;;;29.48;21.80;;;;;;;17.13;90.35;100345.91;714334;1174;115344;-73
2022/07/09 20:51:25;;;;;;;16.93;11.43;;;;;;;16.60;91.91;100346.52;714723;1174;115864;-74
2022/07/09 21:06:28;;;;;;;8.20;4.18;;;;;;;17.13;86.94;100348.56;715143;1174;114810;-74
2022/07/09 21:21:31;;;;;;;5.58;2.90;;;;;;;17.11;84.21;100343.41;714627;1174;115474;-75
2022/07/09 21:36:33;;;;;;;6.30;4.70;;;;;;;15.73;88.86;100343.77;719118;1173;115124;-72
2022/07/09 21:51:36;;;;;;;3.90;2.95;;;;;;;15.38;89.99;100351.89;718151;1173;114855;-74
2022/07/09 22:06:38;;;;;;;6.98;2.85;;;;;;;15.08;90.78;100335.67;714941;1174;114613;-73
2022/07/09 22:21:40;;;;;;;4.07;2.27;;;;;;;15.06;91.82;100335.03;715075;1174;114348;-74
2022/07/09 22:36:43;;;;;;;7.98;3.13;;;;;;;15.19;92.47;100313.41;715224;1174;114117;-74
2022/07/09 22:51:45;;;;;;;6.70;2.80;;;;;;;15.16;91.39;100307.63;714475;1174;115060;-73
2022/07/09 23:06:47;;;;;;;5.30;2.25;;;;;;;15.14;90.08;100308.61;714760;1174;115053;-73
2022/07/09 23:21:50;;;;;;;4.90;1.98;;;;;;;15.08;87.84;100274.10;714573;1174;114147;-73
2022/07/09 23:36:52;;;;;;;7.73;4.35;;;;;;;14.88;88.00;100284.98;714344;1174;114828;-74
2022/07/09 23:51:54;;;;;;;3.20;1.95;;;;;;;14.47;87.44;100284.88;714152;1174;113609;-74
